createdAt,value
2022-07-29T00:02:26.617Z,101510.38
2022-07-29T00:04:53.543Z,101504.88
2022-07-29T00:07:20.295Z,101503.44
2022-07-29T00:09:50.991Z,101502.09
2022-07-29T00:12:21.503Z,101514.88
2022-07-29T00:14:53.294Z,101504.41
2022-07-29T00:17:20.000Z,101499.81
2022-07-29T00:19:46.670Z,101493.84
2022-07-29T00:22:13.379Z,101499.34
2022-07-29T00:24:40.047Z,101496.81
2022-07-29T00:27:07.222Z,101507.53
2022-07-29T00:29:34.917Z,101492.53
2022-07-29T00:32:02.763Z,101499.09
2022-07-29T00:34:48.060Z,101499.50
2022-07-29T00:37:14.696Z,101498.88
2022-07-29T00:39:41.398Z,101490.47
2022-07-29T00:42:08.880Z,101498.63
2022-07-29T00:44:39.647Z,101491.19
2022-07-29T00:47:07.204Z,101487.09
2022-07-29T00:49:35.015Z,101480.88
2022-07-29T00:52:06.028Z,101472.81
2022-07-29T00:54:33.980Z,101478.09
2022-07-29T00:57:00.978Z,101475.47
2022-07-29T00:59:34.630Z,101473.63
2022-07-29T01:02:03.875Z,101471.09
2022-07-29T01:04:31.973Z,101471.63
2022-07-29T01:06:59.612Z,101469.09
2022-07-29T01:09:34.987Z,101473.47
2022-07-29T01:12:19.072Z,101475.91
2022-07-29T01:14:46.911Z,101476.25
2022-07-29T01:17:36.380Z,101464.63
2022-07-29T01:20:12.421Z,101462.09
2022-07-29T01:23:08.121Z,101460.88
2022-07-29T01:25:59.366Z,101456.91
2022-07-29T01:28:48.020Z,101439.38
2022-07-29T01:31:25.402Z,101431.72
2022-07-29T01:34:00.260Z,101422.69
2022-07-29T01:36:33.421Z,101412.25
2022-07-29T01:39:26.300Z,101404.81
2022-07-29T01:42:28.089Z,101397.47
2022-07-29T01:45:07.484Z,101405.16
2022-07-29T01:47:42.912Z,101400.13
2022-07-29T01:50:13.798Z,101401.22
2022-07-29T01:52:57.405Z,101395.09
2022-07-29T01:55:29.792Z,101394.00
2022-07-29T01:58:01.116Z,101398.78
2022-07-29T02:00:29.328Z,101396.28
2022-07-29T02:02:59.001Z,101384.75
2022-07-29T02:05:28.435Z,101390.66
2022-07-29T02:07:57.771Z,101392.81
2022-07-29T02:10:28.865Z,101393.06
2022-07-29T02:12:58.204Z,101397.34
2022-07-29T02:15:28.332Z,101399.41
2022-07-29T02:18:03.104Z,101399.75
2022-07-29T02:20:31.592Z,101396.50
2022-07-29T02:23:00.796Z,101401.78
2022-07-29T02:25:37.052Z,101399.34
2022-07-29T02:28:07.636Z,101397.22
2022-07-29T02:30:37.269Z,101400.22
2022-07-29T02:33:05.354Z,101402.25
2022-07-29T02:35:34.866Z,101396.88
2022-07-29T02:38:22.310Z,101401.28
2022-07-29T02:40:51.743Z,101407.78
2022-07-29T02:43:19.653Z,101403.09
2022-07-29T02:45:52.681Z,101402.63
2022-07-29T02:48:27.364Z,101398.19
2022-07-29T02:51:02.491Z,101392.31
2022-07-29T02:53:34.327Z,101385.09
2022-07-29T02:56:05.448Z,101391.25
2022-07-29T02:58:35.442Z,101395.56
2022-07-29T03:01:12.308Z,101393.50
2022-07-29T03:03:42.618Z,101397.34
2022-07-29T03:06:30.954Z,101391.84
2022-07-29T03:09:00.079Z,101392.69
2022-07-29T03:11:42.425Z,101388.94
2022-07-29T03:14:15.405Z,101389.94
2022-07-29T03:16:43.071Z,101384.41
2022-07-29T03:19:10.043Z,101394.59
2022-07-29T03:21:36.823Z,101389.56
2022-07-29T03:24:09.816Z,101374.69
2022-07-29T03:26:37.154Z,101382.72
2022-07-29T03:29:03.846Z,101383.06
2022-07-29T03:31:30.590Z,101383.06
2022-07-29T03:33:58.498Z,101379.38
2022-07-29T03:36:25.860Z,101377.56
2022-07-29T03:38:53.377Z,101379.00
2022-07-29T03:41:23.895Z,101374.81
2022-07-29T03:43:51.249Z,101372.66
2022-07-29T03:46:20.449Z,101365.56
2022-07-29T03:48:51.733Z,101372.28
2022-07-29T03:51:18.862Z,101370.34
2022-07-29T03:54:00.500Z,101365.44
2022-07-29T03:56:28.993Z,101371.31
2022-07-29T03:58:56.587Z,101369.78
2022-07-29T04:01:24.966Z,101380.19
2022-07-29T04:03:52.467Z,101369.91
2022-07-29T04:06:19.290Z,101370.38
2022-07-29T04:08:46.225Z,101372.41
2022-07-29T04:11:13.747Z,101366.78
2022-07-29T04:13:40.404Z,101387.91
2022-07-29T04:16:07.189Z,101383.34
2022-07-29T04:18:33.964Z,101367.50
2022-07-29T04:21:01.848Z,101379.97
2022-07-29T04:23:34.410Z,101367.63
2022-07-29T04:26:02.163Z,101366.44
2022-07-29T04:28:29.145Z,101373.97
2022-07-29T04:30:56.504Z,101372.63
2022-07-29T04:33:23.136Z,101372.03
2022-07-29T04:35:52.442Z,101377.31
2022-07-29T04:38:23.149Z,101386.56
2022-07-29T04:40:49.993Z,101382.34
2022-07-29T04:43:17.185Z,101375.28
2022-07-29T04:45:49.561Z,101381.16
2022-07-29T04:48:16.199Z,101374.09
2022-07-29T04:50:43.125Z,101375.00
2022-07-29T04:53:09.869Z,101381.03
2022-07-29T04:55:38.863Z,101376.94
2022-07-29T04:58:05.910Z,101385.06
2022-07-29T05:00:33.535Z,101388.41
2022-07-29T05:03:00.901Z,101383.28
2022-07-29T05:05:27.749Z,101390.63
2022-07-29T05:07:54.489Z,101390.28
2022-07-29T05:10:21.111Z,101382.34
2022-07-29T05:12:48.256Z,101381.09
2022-07-29T05:15:15.125Z,101383.63
2022-07-29T05:17:41.853Z,101386.44
2022-07-29T05:20:09.025Z,101377.75
2022-07-29T05:22:35.810Z,101379.34
2022-07-29T05:25:08.492Z,101374.28
2022-07-29T05:27:36.815Z,101371.88
2022-07-29T05:30:03.939Z,101373.47
2022-07-29T05:32:30.658Z,101374.41
2022-07-29T05:34:57.390Z,101381.59
2022-07-29T05:37:24.132Z,101381.34
2022-07-29T05:39:50.936Z,101389.41
2022-07-29T05:42:23.722Z,101389.38
2022-07-29T05:44:50.393Z,101383.53
2022-07-29T05:47:17.129Z,101382.81
2022-07-29T05:49:43.895Z,101380.41
2022-07-29T05:52:10.676Z,101373.09
2022-07-29T05:54:37.426Z,101378.72
2022-07-29T05:57:04.404Z,101379.34
2022-07-29T05:59:31.111Z,101383.53
2022-07-29T06:01:58.660Z,101372.13
2022-07-29T06:04:25.548Z,101382.16
2022-07-29T06:06:52.285Z,101383.13
2022-07-29T06:09:19.027Z,101380.31
2022-07-29T06:11:45.987Z,101380.91
2022-07-29T06:14:12.687Z,101383.84
2022-07-29T06:16:39.527Z,101380.50
2022-07-29T06:19:06.356Z,101369.88
2022-07-29T06:21:33.151Z,101372.56
2022-07-29T06:23:59.919Z,101374.78
2022-07-29T06:26:31.451Z,101383.44
2022-07-29T06:28:59.736Z,101379.53
2022-07-29T06:31:26.668Z,101381.22
2022-07-29T06:33:54.739Z,101379.66
2022-07-29T06:36:22.974Z,101372.28
2022-07-29T06:38:52.118Z,101380.91
2022-07-29T06:41:19.255Z,101380.50
2022-07-29T06:43:52.524Z,101384.84
2022-07-29T06:46:22.578Z,101385.53
2022-07-29T06:48:49.689Z,101397.41
2022-07-29T06:51:21.680Z,101396.31
2022-07-29T06:54:00.373Z,101396.69
2022-07-29T06:56:29.484Z,101396.00
2022-07-29T06:58:56.321Z,101398.59
2022-07-29T07:01:23.046Z,101394.97
2022-07-29T07:03:49.997Z,101398.28
2022-07-29T07:06:17.377Z,101401.00
2022-07-29T07:08:44.031Z,101407.50
2022-07-29T07:11:10.751Z,101392.72
2022-07-29T07:13:37.477Z,101391.88
2022-07-29T07:16:05.432Z,101386.00
2022-07-29T07:18:32.321Z,101387.59
2022-07-29T07:21:00.154Z,101383.91
2022-07-29T07:23:26.861Z,101379.25
2022-07-29T07:25:53.502Z,101382.38
2022-07-29T07:28:24.539Z,101378.44
2022-07-29T07:30:51.900Z,101376.69
2022-07-29T07:33:18.644Z,101376.56
2022-07-29T07:35:45.393Z,101385.31
2022-07-29T07:38:12.152Z,101387.31
2022-07-29T07:40:38.909Z,101389.47
2022-07-29T07:43:05.570Z,101385.66
2022-07-29T07:45:34.007Z,101376.47
2022-07-29T07:48:01.224Z,101383.28
2022-07-29T07:50:28.198Z,101384.97
2022-07-29T07:52:58.848Z,101380.00
2022-07-29T07:55:26.678Z,101373.88
2022-07-29T07:57:53.570Z,101381.13
2022-07-29T08:00:22.939Z,101368.28
2022-07-29T08:02:51.054Z,101375.75
2022-07-29T08:05:18.433Z,101368.06
2022-07-29T08:07:47.011Z,101371.84
2022-07-29T08:10:16.024Z,101367.19
2022-07-29T08:12:44.452Z,101371.66
2022-07-29T08:15:11.166Z,101368.41
2022-07-29T08:17:37.920Z,101369.78
2022-07-29T08:20:05.173Z,101360.00
2022-07-29T08:22:32.235Z,101357.63
2022-07-29T08:24:58.893Z,101355.19
2022-07-29T08:27:42.886Z,101353.34
2022-07-29T08:30:11.302Z,101343.28
2022-07-29T08:32:53.340Z,101348.09
2022-07-29T08:35:22.685Z,101338.94
2022-07-29T08:37:49.438Z,101351.69
2022-07-29T08:40:16.673Z,101345.06
2022-07-29T08:42:43.355Z,101343.72
2022-07-29T08:45:10.625Z,101356.19
2022-07-29T08:47:40.590Z,101357.47
2022-07-29T08:50:09.834Z,101357.31
2022-07-29T08:52:42.251Z,101363.09
2022-07-29T08:55:11.290Z,101359.06
2022-07-29T08:57:43.427Z,101364.75
2022-07-29T09:00:23.463Z,101353.69
2022-07-29T09:02:57.272Z,101361.88
2022-07-29T09:05:25.240Z,101353.38
2022-07-29T09:07:52.548Z,101356.59
2022-07-29T09:10:19.458Z,101352.44
2022-07-29T09:12:46.451Z,101345.91
2022-07-29T09:15:13.221Z,101351.41
2022-07-29T09:17:48.448Z,101338.53
2022-07-29T09:20:20.538Z,101350.88
2022-07-29T09:22:50.641Z,101337.47
2022-07-29T09:25:37.553Z,101342.84
2022-07-29T09:28:24.714Z,101344.22
2022-07-29T09:30:57.315Z,101338.56
2022-07-29T09:33:24.828Z,101336.25
2022-07-29T09:36:08.856Z,101333.19
2022-07-29T09:38:37.687Z,101330.69
2022-07-29T09:41:06.722Z,101333.34
2022-07-29T09:43:34.292Z,101321.38
2022-07-29T09:46:14.607Z,101319.47
2022-07-29T09:48:41.734Z,101327.66
2022-07-29T09:51:21.411Z,101321.75
2022-07-29T09:53:51.364Z,101317.84
2022-07-29T09:56:20.477Z,101327.34
2022-07-29T09:58:47.124Z,101314.53
2022-07-29T10:01:13.829Z,101311.59
2022-07-29T10:03:53.764Z,101313.50
2022-07-29T10:06:20.515Z,101311.47
2022-07-29T10:08:47.933Z,101310.41
2022-07-29T10:11:18.671Z,101308.72
2022-07-29T10:13:48.416Z,101305.97
2022-07-29T10:16:17.046Z,101303.94
2022-07-29T10:18:44.844Z,101319.81
2022-07-29T10:21:34.546Z,101305.81
2022-07-29T10:24:01.376Z,101305.31
2022-07-29T10:26:29.249Z,101311.47
2022-07-29T10:28:56.868Z,101325.50
2022-07-29T10:31:58.622Z,101312.34
2022-07-29T10:34:44.054Z,101313.25
2022-07-29T10:37:47.543Z,101301.84
2022-07-29T10:40:47.397Z,101314.13
2022-07-29T10:43:37.277Z,101304.19
2022-07-29T10:46:07.337Z,101296.00
2022-07-29T10:48:34.896Z,101299.50
2022-07-29T10:51:07.026Z,101294.78
2022-07-29T10:53:54.181Z,101303.81
2022-07-29T10:56:41.584Z,101291.13
2022-07-29T10:59:24.125Z,101296.25
2022-07-29T11:01:54.370Z,101286.59
2022-07-29T11:04:44.561Z,101289.47
2022-07-29T11:07:12.260Z,101289.69
2022-07-29T11:09:39.700Z,101285.09
2022-07-29T11:12:37.375Z,101283.88
2022-07-29T11:15:08.036Z,101276.78
2022-07-29T11:17:53.461Z,101273.44
2022-07-29T11:20:46.382Z,101273.25
2022-07-29T11:23:33.376Z,101260.53
2022-07-29T11:26:26.773Z,101270.53
2022-07-29T11:28:57.248Z,101284.28
2022-07-29T11:31:36.141Z,101277.50
2022-07-29T11:34:28.238Z,101275.16
2022-07-29T11:37:12.360Z,101267.16
2022-07-29T11:39:45.317Z,101263.69
2022-07-29T11:42:32.138Z,101262.41
2022-07-29T11:45:42.946Z,101251.25
2022-07-29T11:48:27.580Z,101265.16
2022-07-29T11:50:48.147Z,101257.78
2022-07-29T11:53:16.227Z,101252.28
2022-07-29T11:55:50.996Z,101248.94
2022-07-29T11:58:25.066Z,101239.53
2022-07-29T12:00:53.063Z,101257.53
2022-07-29T12:03:33.366Z,101252.41
2022-07-29T12:06:13.129Z,101244.06
2022-07-29T12:08:44.524Z,101253.53
2022-07-29T12:11:22.696Z,101252.53
2022-07-29T12:13:51.848Z,101243.13
2022-07-29T12:16:25.799Z,101234.84
2022-07-29T12:19:04.078Z,101232.09
2022-07-29T12:21:52.317Z,101231.97
2022-07-29T12:24:26.984Z,101237.59
2022-07-29T12:26:59.153Z,101226.00
2022-07-29T12:29:35.237Z,101226.94
2022-07-29T12:32:04.127Z,101219.69
2022-07-29T12:34:31.866Z,101228.06
2022-07-29T12:36:58.688Z,101224.13
2022-07-29T12:39:28.894Z,101226.22
2022-07-29T12:42:04.691Z,101226.34
2022-07-29T12:44:49.141Z,101206.25
2022-07-29T12:47:17.405Z,101215.84
2022-07-29T12:49:44.151Z,101218.13
2022-07-29T12:52:29.143Z,101228.31
2022-07-29T12:54:55.955Z,101217.59
2022-07-29T12:57:23.274Z,101209.25
2022-07-29T13:00:12.581Z,101215.59
2022-07-29T13:02:39.917Z,101213.81
2022-07-29T13:05:09.210Z,101212.69
2022-07-29T13:07:54.570Z,101212.97
2022-07-29T13:10:24.940Z,101206.66
2022-07-29T13:13:15.355Z,101208.16
2022-07-29T13:15:44.027Z,101204.56
2022-07-29T13:18:38.830Z,101204.72
2022-07-29T13:21:18.782Z,101201.84
2022-07-29T13:23:45.997Z,101199.50
2022-07-29T13:26:13.113Z,101198.41
2022-07-29T13:28:40.496Z,101182.84
2022-07-29T13:31:11.203Z,101187.50
2022-07-29T13:33:37.960Z,101190.75
2022-07-29T13:36:04.686Z,101181.06
2022-07-29T13:38:31.475Z,101191.25
2022-07-29T13:40:58.503Z,101183.81
2022-07-29T13:43:25.290Z,101177.53
2022-07-29T13:45:52.048Z,101168.38
2022-07-29T13:48:18.882Z,101171.34
2022-07-29T13:50:46.642Z,101178.13
2022-07-29T13:53:17.858Z,101170.16
2022-07-29T13:55:46.342Z,101182.66
2022-07-29T13:58:15.057Z,101171.09
2022-07-29T14:00:41.799Z,101173.97
2022-07-29T14:03:08.460Z,101170.81
2022-07-29T14:05:35.084Z,101171.63
2022-07-29T14:08:01.737Z,101161.56
2022-07-29T14:10:28.420Z,101167.16
2022-07-29T14:12:55.219Z,101170.81
2022-07-29T14:15:21.926Z,101167.19
2022-07-29T14:17:48.543Z,101160.41
2022-07-29T14:20:16.618Z,101160.59
2022-07-29T14:22:45.286Z,101150.47
2022-07-29T14:25:14.678Z,101155.50
2022-07-29T14:27:42.818Z,101147.63
2022-07-29T14:30:11.824Z,101154.28
2022-07-29T14:32:38.492Z,101146.34
2022-07-29T14:35:06.727Z,101147.34
2022-07-29T14:37:40.493Z,101143.19
2022-07-29T14:40:09.411Z,101137.03
2022-07-29T14:42:37.186Z,101126.41
2022-07-29T14:45:05.041Z,101125.84
2022-07-29T14:47:32.559Z,101135.25
2022-07-29T14:49:59.276Z,101137.78
2022-07-29T14:52:26.087Z,101137.00
2022-07-29T14:54:52.736Z,101133.44
2022-07-29T14:57:19.369Z,101139.38
2022-07-29T14:59:46.029Z,101135.16
2022-07-29T15:02:12.692Z,101134.88
2022-07-29T15:04:40.104Z,101135.94
2022-07-29T15:07:06.823Z,101130.44
2022-07-29T15:09:33.672Z,101126.00
2022-07-29T15:12:07.853Z,101132.38
2022-07-29T15:14:35.085Z,101122.28
2022-07-29T15:17:01.888Z,101129.63
2022-07-29T15:19:31.584Z,101130.00
2022-07-29T15:21:59.754Z,101129.56
2022-07-29T15:24:28.183Z,101137.41
2022-07-29T15:26:54.894Z,101133.06
2022-07-29T15:29:21.564Z,101135.47
2022-07-29T15:31:48.490Z,101128.22
2022-07-29T15:34:15.369Z,101118.22
2022-07-29T15:36:52.102Z,101108.91
2022-07-29T15:39:22.314Z,101106.38
2022-07-29T15:41:49.510Z,101122.81
2022-07-29T15:44:16.230Z,101119.28
2022-07-29T15:47:01.775Z,101120.84
2022-07-29T15:49:48.470Z,101125.94
2022-07-29T15:52:25.321Z,101118.38
2022-07-29T15:54:57.003Z,101131.66
2022-07-29T15:57:24.743Z,101111.69
2022-07-29T15:59:52.115Z,101113.81
2022-07-29T16:02:19.279Z,101113.84
2022-07-29T16:04:45.941Z,101108.75
2022-07-29T16:07:12.703Z,101104.19
2022-07-29T16:09:41.409Z,101102.75
2022-07-29T16:12:13.673Z,101102.34
2022-07-29T16:14:45.401Z,101088.91
2022-07-29T16:17:14.800Z,101090.63
2022-07-29T16:19:45.595Z,101085.47
2022-07-29T16:22:12.891Z,101085.19
2022-07-29T16:24:39.882Z,101081.06
2022-07-29T16:27:06.848Z,101073.56
2022-07-29T16:29:33.516Z,101067.72
2022-07-29T16:32:00.954Z,101077.22
2022-07-29T16:34:27.657Z,101071.88
2022-07-29T16:36:54.490Z,101061.94
2022-07-29T16:39:21.202Z,101062.88
2022-07-29T16:41:47.972Z,101068.44
2022-07-29T16:44:15.944Z,101064.91
2022-07-29T16:46:44.845Z,101060.56
2022-07-29T16:49:11.765Z,101064.53
2022-07-29T16:51:41.725Z,101062.63
2022-07-29T16:54:11.071Z,101072.56
2022-07-29T16:56:37.771Z,101061.00
2022-07-29T16:59:04.463Z,101070.13
2022-07-29T17:01:31.139Z,101070.75
2022-07-29T17:04:06.388Z,101071.75
2022-07-29T17:06:38.180Z,101072.38
2022-07-29T17:09:07.266Z,101070.03
2022-07-29T17:11:52.727Z,101069.97
2022-07-29T17:14:25.189Z,101069.47
2022-07-29T17:17:00.744Z,101076.41
2022-07-29T17:19:30.369Z,101075.28
2022-07-29T17:22:04.673Z,101078.19
2022-07-29T17:24:31.624Z,101079.81
2022-07-29T17:26:58.574Z,101072.19
2022-07-29T17:29:25.574Z,101075.38
2022-07-29T17:31:52.289Z,101063.84
2022-07-29T17:34:19.105Z,101060.91
2022-07-29T17:36:46.183Z,101073.44
2022-07-29T17:39:12.924Z,101078.78
2022-07-29T17:41:44.892Z,101076.44
2022-07-29T17:44:11.560Z,101072.41
2022-07-29T17:46:38.709Z,101064.47
2022-07-29T17:49:05.710Z,101070.53
2022-07-29T17:51:33.184Z,101070.41
2022-07-29T17:53:59.901Z,101064.97
2022-07-29T17:56:26.583Z,101077.13
2022-07-29T17:58:53.441Z,101079.84
2022-07-29T18:01:20.938Z,101081.81
2022-07-29T18:03:47.789Z,101078.28
2022-07-29T18:06:14.612Z,101076.53
2022-07-29T18:08:41.335Z,101077.19
2022-07-29T18:11:08.014Z,101078.91
2022-07-29T18:13:34.703Z,101077.66
2022-07-29T18:16:01.426Z,101081.34
2022-07-29T18:18:28.178Z,101086.03
2022-07-29T18:20:55.215Z,101079.81
2022-07-29T18:23:21.897Z,101081.63
2022-07-29T18:25:48.638Z,101084.03
2022-07-29T18:28:15.432Z,101083.69
2022-07-29T18:30:42.211Z,101086.53
2022-07-29T18:33:21.801Z,101097.84
2022-07-29T18:35:50.559Z,101100.53
2022-07-29T18:38:17.451Z,101105.88
2022-07-29T18:40:45.675Z,101105.66
2022-07-29T18:43:12.858Z,101101.72
2022-07-29T18:45:39.710Z,101102.66
2022-07-29T18:48:13.264Z,101100.59
2022-07-29T18:50:41.046Z,101107.34
2022-07-29T18:53:08.066Z,101099.94
2022-07-29T18:55:34.828Z,101101.50
2022-07-29T18:58:01.508Z,101093.06
2022-07-29T19:00:28.272Z,101106.28
2022-07-29T19:02:55.654Z,101110.34
2022-07-29T19:05:23.299Z,101105.84
2022-07-29T19:07:50.099Z,101108.69
2022-07-29T19:10:17.009Z,101106.91
2022-07-29T19:12:43.720Z,101115.59
2022-07-29T19:15:10.879Z,101126.94
2022-07-29T19:17:38.726Z,101123.44
2022-07-29T19:20:07.207Z,101122.16
2022-07-29T19:22:34.893Z,101133.59
2022-07-29T19:25:01.642Z,101131.81
2022-07-29T19:27:28.403Z,101138.78
2022-07-29T19:29:58.939Z,101134.81
2022-07-29T19:32:25.983Z,101129.47
2022-07-29T19:35:11.671Z,101135.75
2022-07-29T19:37:39.670Z,101135.88
2022-07-29T19:40:07.410Z,101143.41
2022-07-29T19:42:35.182Z,101133.78
2022-07-29T19:45:01.802Z,101135.16
2022-07-29T19:47:28.470Z,101141.50
2022-07-29T19:49:55.130Z,101140.69
2022-07-29T19:52:21.836Z,101146.56
2022-07-29T19:54:48.545Z,101143.53
2022-07-29T19:57:16.048Z,101138.59
2022-07-29T19:59:42.923Z,101134.31
2022-07-29T20:02:12.323Z,101135.16
2022-07-29T20:04:39.645Z,101136.91
2022-07-29T20:07:07.288Z,101135.84
2022-07-29T20:09:34.153Z,101136.16
2022-07-29T20:12:00.977Z,101144.94
2022-07-29T20:14:27.724Z,101142.06
2022-07-29T20:16:54.513Z,101139.47
2022-07-29T20:19:21.378Z,101140.13
2022-07-29T20:21:48.129Z,101148.69
2022-07-29T20:24:14.822Z,101143.97
2022-07-29T20:26:41.845Z,101150.53
2022-07-29T20:29:09.190Z,101147.31
2022-07-29T20:31:36.210Z,101156.56
2022-07-29T20:34:02.955Z,101158.06
2022-07-29T20:36:29.731Z,101147.53
2022-07-29T20:38:56.868Z,101152.56
2022-07-29T20:41:23.645Z,101154.91
2022-07-29T20:43:50.417Z,101149.91
2022-07-29T20:46:18.749Z,101150.75
2022-07-29T20:48:46.976Z,101155.06
2022-07-29T20:51:14.535Z,101155.06
2022-07-29T20:53:41.746Z,101153.94
2022-07-29T20:56:08.760Z,101155.75
2022-07-29T20:58:36.582Z,101153.94
2022-07-29T21:01:03.827Z,101172.59
2022-07-29T21:03:30.726Z,101168.09
2022-07-29T21:05:57.458Z,101163.41
2022-07-29T21:08:24.633Z,101163.59
2022-07-29T21:10:51.370Z,101165.78
2022-07-29T21:13:18.715Z,101163.44
2022-07-29T21:15:49.288Z,101167.28
2022-07-29T21:18:37.112Z,101170.13
2022-07-29T21:21:05.019Z,101175.28
2022-07-29T21:23:31.849Z,101177.44
2022-07-29T21:25:58.982Z,101170.94
2022-07-29T21:28:51.984Z,101168.44
2022-07-29T21:31:18.694Z,101177.28
2022-07-29T21:33:46.688Z,101171.44
2022-07-29T21:36:46.481Z,101173.78
2022-07-29T21:39:07.117Z,101181.44
2022-07-29T21:41:34.716Z,101169.13
2022-07-29T21:44:01.530Z,101168.13
2022-07-29T21:46:28.427Z,101164.09
2022-07-29T21:48:55.314Z,101166.44
2022-07-29T21:51:21.975Z,101168.53
2022-07-29T21:53:48.653Z,101158.03
2022-07-29T21:56:15.306Z,101164.19
2022-07-29T21:58:44.615Z,101162.22
2022-07-29T22:01:11.386Z,101170.00
2022-07-29T22:03:38.186Z,101164.38
2022-07-29T22:06:04.879Z,101168.38
2022-07-29T22:08:31.620Z,101173.16
2022-07-29T22:10:58.296Z,101167.66
2022-07-29T22:13:24.999Z,101173.47
2022-07-29T22:15:51.673Z,101165.13
2022-07-29T22:18:20.533Z,101165.81
2022-07-29T22:20:49.176Z,101163.31
2022-07-29T22:23:15.846Z,101163.44
2022-07-29T22:25:42.480Z,101162.78
2022-07-29T22:28:09.148Z,101164.41
2022-07-29T22:30:35.941Z,101159.56
2022-07-29T22:33:02.690Z,101156.47
2022-07-29T22:35:29.360Z,101158.78
2022-07-29T22:37:56.087Z,101158.78
2022-07-29T22:40:22.796Z,101144.44
2022-07-29T22:42:57.487Z,101150.63
2022-07-29T22:45:24.238Z,101152.94
2022-07-29T22:47:55.964Z,101145.25
2022-07-29T22:50:25.796Z,101147.41
2022-07-29T22:52:52.408Z,101140.69
2022-07-29T22:55:19.069Z,101136.03
2022-07-29T22:57:45.749Z,101133.53
2022-07-29T23:00:13.597Z,101136.72
2022-07-29T23:02:41.489Z,101132.50
2022-07-29T23:05:09.091Z,101131.22
2022-07-29T23:07:36.176Z,101135.78
2022-07-29T23:10:03.435Z,101133.13
2022-07-29T23:12:30.080Z,101124.44
2022-07-29T23:14:56.696Z,101123.44
2022-07-29T23:17:23.429Z,101122.22
2022-07-29T23:19:50.087Z,101127.16
2022-07-29T23:22:17.016Z,101120.50
2022-07-29T23:24:45.448Z,101129.97
2022-07-29T23:27:12.095Z,101124.75
2022-07-29T23:29:38.761Z,101123.91
2022-07-29T23:32:06.576Z,101127.25
2022-07-29T23:34:33.197Z,101124.50
2022-07-29T23:37:00.042Z,101125.63
2022-07-29T23:39:26.960Z,101118.56
2022-07-29T23:41:53.711Z,101118.50
2022-07-29T23:44:20.441Z,101123.72
2022-07-29T23:46:47.184Z,101124.44
2022-07-29T23:49:14.609Z,101121.16
2022-07-29T23:51:41.323Z,101120.94
2022-07-29T23:54:08.106Z,101115.47
2022-07-29T23:56:34.736Z,101126.78
2022-07-29T23:59:01.363Z,101122.41
